Bella Vita — ZCXZ8 — position and weather

sailwx.info

Track history (hours):
 
Tides and Currents Weather Stations Pressure Air Temp Water Temp Dewpoint Dewpoint Depression Visibility Wind Speed Wind Dir Waves Ship Positions

Bella Vita

Last reported at 2018-May-25 11:16 UTC. Time now 2018-May-27 03:18 UTC.
Position N 37°04' E 025°39'.

Length 75 m; draft 3.8 m.

Type: Pleasure craft. MMSI: 319008900.

Date/timePositionNaut miles runAvg speedWind from/ knotsBaromVisibWave heightAir tempDewpointWater temp
2018-May-25 11:16N 37°04' E 025°39'414.2
2018-May-25 11:01N 37°07' E 025°38'1313.5
2018-May-25 10:02N 37°18' E 025°28'013.3
2018-May-25 10:00N 37°18' E 025°28'713.2
2018-May-25 09:30N 37°23' E 025°22'2 4.2
2018-May-25 09:01N 37°24' E 025°21'0 0.1
2018-May-25 08:30N 37°24' E 025°21'0 0.0
2018-May-25 08:00N 37°24' E 025°21'0 0.0
2018-May-25 07:30N 37°24' E 025°21'0 0.0
2018-May-25 07:00N 37°24' E 025°21'0 0.0
2018-May-25 06:30N 37°24' E 025°21'0 0.0
2018-May-25 06:00N 37°24' E 025°21'0 0.1
2018-May-25 05:30N 37°24' E 025°21'0 0.0
2018-May-25 05:00N 37°24' E 025°21'0 0.0
2018-May-25 04:30N 37°24' E 025°21'0 1.0
2018-May-25 04:00N 37°24' E 025°20'5 9.3
2018-May-25 03:30N 37°21' E 025°16'1411.9
2018-May-25 02:18N 37°21' E 024°57'312.1
2018-May-25 02:00N 37°21' E 024°53'612.0
2018-May-25 01:30N 37°24' E 024°46'2511.4
2018-May-24 23:20N 37°29' E 024°16'912.2
2018-May-24 22:35N 37°32' E 024°05'211.9
2018-May-24 22:23N 37°33' E 024°02'612.1
2018-May-24 21:55N 37°34' E 023°55'512.3
2018-May-24 21:30N 37°36' E 023°49'611.9
2018-May-24 21:00N 37°39' E 023°43'611.8
2018-May-24 20:30N 37°44' E 023°40'611.1
2018-May-24 20:00N 37°49' E 023°37'612.4
2018-May-24 19:30N 37°55' E 023°39'1 1.3
2018-May-24 18:59N 37°56' E 023°39'0 0.0
2018-May-24 18:29N 37°56' E 023°39'0 0.0
2018-May-24 18:00N 37°56' E 023°39'0 0.0
2018-May-24 17:30N 37°56' E 023°39'0 0.0
2018-May-24 17:00N 37°56' E 023°39'0 0.0
2018-May-24 16:28N 37°56' E 023°39'0 0.0
2018-May-24 15:58N 37°56' E 023°39'0 0.0
2018-May-24 15:28N 37°56' E 023°39'0 0.0
2018-May-24 14:59N 37°56' E 023°39'0 0.0
2018-May-24 14:29N 37°56' E 023°39'0 0.0
2018-May-24 13:59N 37°56' E 023°39'0 0.0
2018-May-24 13:30N 37°56' E 023°39'2 0.5
2018-May-24 09:00N 37°55' E 023°37'612.4
2018-May-24 08:30N 37°53' E 023°29'611.9
2018-May-24 08:00N 37°52' E 023°22'612.3
2018-May-24 07:30N 37°53' E 023°14'612.5
2018-May-24 07:00N 37°54' E 023°06'7 7.7
2018-May-24 06:06N 37°57' E 022°58'0 4.0
2018-May-24 06:00N 37°57' E 022°58'3 7.0
2018-May-24 05:30N 37°59' E 022°54'712.7
2018-May-24 04:57N 38°03' E 022°46'  
Track history (hours):
 
Tides and Currents Weather Stations Pressure Air Temp Water Temp Dewpoint Dewpoint Depression Visibility Wind Speed Wind Dir Waves Ship Positions

Bella Vita

Last reported at 2018-May-25 11:16 UTC. Time now 2018-May-27 03:18 UTC.
Position N 37°04' E 025°39'.

Length 75 m; draft 3.8 m.

Type: Pleasure craft. MMSI: 319008900.

Date/timePositionNaut miles runAvg speedWind from/ knotsBaromVisibWave heightAir tempDewpointWater temp
2018-May-25 11:16N 37°04' E 025°39'414.2
2018-May-25 11:01N 37°07' E 025°38'1313.5
2018-May-25 10:02N 37°18' E 025°28'013.3
2018-May-25 10:00N 37°18' E 025°28'713.2
2018-May-25 09:30N 37°23' E 025°22'2 4.2
2018-May-25 09:01N 37°24' E 025°21'0 0.1
2018-May-25 08:30N 37°24' E 025°21'0 0.0
2018-May-25 08:00N 37°24' E 025°21'0 0.0
2018-May-25 07:30N 37°24' E 025°21'0 0.0
2018-May-25 07:00N 37°24' E 025°21'0 0.0
2018-May-25 06:30N 37°24' E 025°21'0 0.0
2018-May-25 06:00N 37°24' E 025°21'0 0.1
2018-May-25 05:30N 37°24' E 025°21'0 0.0
2018-May-25 05:00N 37°24' E 025°21'0 0.0
2018-May-25 04:30N 37°24' E 025°21'0 1.0
2018-May-25 04:00N 37°24' E 025°20'5 9.3
2018-May-25 03:30N 37°21' E 025°16'1411.9
2018-May-25 02:18N 37°21' E 024°57'312.1
2018-May-25 02:00N 37°21' E 024°53'612.0
2018-May-25 01:30N 37°24' E 024°46'2511.4
2018-May-24 23:20N 37°29' E 024°16'912.2
2018-May-24 22:35N 37°32' E 024°05'211.9
2018-May-24 22:23N 37°33' E 024°02'612.1
2018-May-24 21:55N 37°34' E 023°55'512.3
2018-May-24 21:30N 37°36' E 023°49'611.9
2018-May-24 21:00N 37°39' E 023°43'611.8
2018-May-24 20:30N 37°44' E 023°40'611.1
2018-May-24 20:00N 37°49' E 023°37'612.4
2018-May-24 19:30N 37°55' E 023°39'1 1.3
2018-May-24 18:59N 37°56' E 023°39'0 0.0
2018-May-24 18:29N 37°56' E 023°39'0 0.0
2018-May-24 18:00N 37°56' E 023°39'0 0.0
2018-May-24 17:30N 37°56' E 023°39'0 0.0
2018-May-24 17:00N 37°56' E 023°39'0 0.0
2018-May-24 16:28N 37°56' E 023°39'0 0.0
2018-May-24 15:58N 37°56' E 023°39'0 0.0
2018-May-24 15:28N 37°56' E 023°39'0 0.0
2018-May-24 14:59N 37°56' E 023°39'0 0.0
2018-May-24 14:29N 37°56' E 023°39'0 0.0
2018-May-24 13:59N 37°56' E 023°39'0 0.0
2018-May-24 13:30N 37°56' E 023°39'2 0.5
2018-May-24 09:00N 37°55' E 023°37'612.4
2018-May-24 08:30N 37°53' E 023°29'611.9
2018-May-24 08:00N 37°52' E 023°22'612.3
2018-May-24 07:30N 37°53' E 023°14'612.5
2018-May-24 07:00N 37°54' E 023°06'7 7.7
2018-May-24 06:06N 37°57' E 022°58'0 4.0
2018-May-24 06:00N 37°57' E 022°58'3 7.0
2018-May-24 05:30N 37°59' E 022°54'712.7
2018-May-24 04:57N 38°03' E 022°46'  

Dump ship's entire track history